Impacts TAF Board
For situational awareness. Not to be used for flight planning purposes.
IDs:

KHBG - Hattiesburg/Chain Mu, MS, US

Issued at 2320 UTC 23 Apr 2019
Updated at 0220 UTC 24 Apr 2019
Potential Impact None Slight Moderate High
Time0153Z 24/03Z 24/04Z 24/05Z 24/06Z 24/07Z 24/08Z 24/09Z 24/10Z 24/11Z 24/12Z 24/13Z 24/14Z 24/15Z>>
Type OBS PRVL PRVL PRVL PRVL PRVL PRVL PRVL PRVL PRVL PRVL PRVL PRVL PRVL
VIS 10 >6 >6 >6 >6 >6 >6 >6 >6 6 6 6 >6 >6
CIG -- 200 200 200 200 200 200 200 200 200 200 200 150 150
Cover CLR BKN BKN BKN BKN BKN BKN BKN BKN BKN BKN BKN BKN BKN
FltCat VFR VFR VFR VFR VFR VFR VFR VFR VFR VFR VFR VFR VFR VFR
WX -- -- -- -- -- -- -- -- -- BR BR BR -- --
WDir 220 180 180 180 180 180 180 180 180 VRB VRB VRB 180 180
WSpd 4 3 3 3 3 3 3 3 3 0 0 0 9 9
WGst -- -- -- -- -- -- -- -- -- -- -- -- -- --
Raw TAF
KHBG 232320Z 2400/2424 18003KT P6SM BKN200
  FM241100 00000KT 6SM BR SCT015 BKN200
  FM241400 18009KT P6SM SCT050 BKN150


Raw METAR
KHBG 240153Z AUTO 22004KT 10SM CLR 19/15 A3005 RMK AO2 SLP174 T01940150
KHBG 240053Z AUTO 12003KT 10SM CLR 20/15 A3004 RMK AO2 SLP168 T02000150
KHBG 232353Z AUTO 19004KT 10SM CLR 22/14 A3006 RMK AO2 SLP178 T02170139 10261 20217 58005

METAR Board
Radar Display
Forecast Discussion
For situational awareness. Not to be used for flight planning purposes.